createdAt,value
2023-04-08T00:03:31.242Z,8.10
2023-04-08T00:08:33.563Z,8.10
2023-04-08T00:13:35.687Z,8.10
2023-04-08T00:18:39.260Z,8.20
2023-04-08T00:23:41.376Z,8.20
2023-04-08T00:28:43.423Z,8.30
2023-04-08T00:33:46.919Z,8.30
2023-04-08T00:38:49.185Z,8.30
2023-04-08T00:43:52.693Z,8.40
2023-04-08T00:48:56.488Z,8.50
2023-04-08T00:53:58.633Z,8.50
2023-04-08T00:59:01.403Z,8.60
2023-04-08T01:04:12.305Z,8.70
2023-04-08T01:09:21.484Z,8.80
2023-04-08T01:14:28.247Z,8.90
2023-04-08T01:19:37.824Z,8.90
2023-04-08T01:24:43.131Z,8.90
2023-04-08T01:29:49.211Z,9.00
2023-04-08T01:34:52.699Z,9.00
2023-04-08T01:39:56.713Z,9.00
2023-04-08T01:45:02.323Z,9.00
2023-04-08T01:50:06.692Z,9.00
2023-04-08T01:55:09.282Z,9.00
2023-04-08T02:00:17.034Z,9.00
2023-04-08T02:05:19.373Z,8.90
2023-04-08T02:10:21.674Z,8.90
2023-04-08T02:15:29.012Z,8.80
2023-04-08T02:20:37.776Z,8.70
2023-04-08T02:25:43.294Z,8.60
2023-04-08T02:30:50.468Z,8.60
2023-04-08T02:35:53.190Z,8.60
2023-04-08T02:40:55.474Z,8.50
2023-04-08T02:45:59.973Z,8.50
2023-04-08T02:51:02.247Z,8.50
2023-04-08T02:56:04.786Z,8.50
2023-04-08T03:01:09.237Z,8.60
2023-04-08T03:06:11.295Z,8.60
2023-04-08T03:11:13.407Z,8.70
2023-04-08T03:16:16.890Z,8.80
2023-04-08T03:21:19.281Z,8.80
2023-04-08T03:26:21.461Z,8.90
2023-04-08T03:31:25.667Z,8.90
2023-04-08T03:36:27.892Z,8.90
2023-04-08T03:41:30.252Z,9.00
2023-04-08T03:46:33.871Z,9.00
2023-04-08T03:51:36.023Z,9.00
2023-04-08T03:56:38.297Z,9.10
2023-04-08T04:01:42.051Z,9.10
2023-04-08T04:06:44.425Z,9.20
2023-04-08T04:11:46.584Z,9.30
2023-04-08T04:16:50.042Z,9.40
2023-04-08T04:21:52.107Z,9.40
2023-04-08T04:26:54.268Z,9.50
2023-04-08T04:31:57.921Z,9.50
2023-04-08T04:37:00.104Z,9.60
2023-04-08T04:42:02.185Z,9.60
2023-04-08T04:47:05.796Z,9.70
2023-04-08T04:52:07.836Z,9.70
2023-04-08T04:57:10.091Z,9.70
2023-04-08T05:02:13.699Z,9.80
2023-04-08T05:07:16.178Z,9.80
2023-04-08T05:12:18.355Z,9.90
2023-04-08T05:17:22.181Z,9.90
2023-04-08T05:22:24.390Z,9.90
2023-04-08T05:27:26.542Z,9.90
2023-04-08T05:32:30.205Z,9.90
2023-04-08T05:37:32.406Z,10.00
2023-04-08T05:42:34.567Z,9.90
2023-04-08T05:47:38.154Z,9.80
2023-04-08T05:52:43.272Z,9.60
2023-04-08T05:57:45.317Z,9.60
2023-04-08T06:02:48.992Z,9.60
2023-04-08T06:07:51.916Z,9.60
2023-04-08T06:12:53.965Z,9.70
2023-04-08T06:17:57.478Z,9.80
2023-04-08T06:23:01.249Z,9.90
2023-04-08T06:28:03.316Z,9.90
2023-04-08T06:33:06.857Z,10.00
2023-04-08T06:38:08.957Z,10.10
2023-04-08T06:43:11.062Z,10.10
2023-04-08T06:48:14.572Z,10.20
2023-04-08T06:53:16.672Z,10.30
2023-04-08T06:58:18.864Z,10.40
2023-04-08T07:03:23.880Z,10.50
2023-04-08T07:08:26.447Z,10.60
2023-04-08T07:13:28.515Z,10.70
2023-04-08T07:18:32.738Z,10.90
2023-04-08T07:23:35.462Z,11.00
2023-04-08T07:28:37.608Z,11.10
2023-04-08T07:33:41.123Z,11.20
2023-04-08T07:38:43.259Z,11.20
2023-04-08T07:43:45.415Z,11.30
2023-04-08T07:48:49.164Z,11.30
2023-04-08T07:53:51.659Z,11.40
2023-04-08T07:58:54.004Z,11.50
2023-04-08T08:03:58.108Z,11.50
2023-04-08T08:09:01.239Z,11.50
2023-04-08T08:14:03.393Z,11.50
2023-04-08T08:19:06.990Z,11.50
2023-04-08T08:24:09.090Z,11.50
2023-04-08T08:29:14.050Z,11.50
2023-04-08T08:34:17.642Z,11.60
2023-04-08T08:39:19.888Z,11.70
2023-04-08T08:44:27.056Z,11.80
2023-04-08T08:49:30.599Z,11.80
2023-04-08T08:54:32.814Z,11.90
2023-04-08T08:59:35.011Z,11.90
2023-04-08T09:04:39.075Z,12.00
2023-04-08T09:09:49.126Z,12.10
2023-04-08T09:14:51.948Z,12.20
2023-04-08T09:20:10.940Z,12.40
2023-04-08T09:25:24.167Z,12.70
2023-04-08T09:30:29.262Z,13.00
2023-04-08T09:35:32.783Z,13.10
2023-04-08T09:40:36.754Z,13.20
2023-04-08T09:45:41.894Z,13.20
2023-04-08T09:50:50.333Z,13.20
2023-04-08T09:55:57.153Z,13.20
2023-04-08T10:01:00.844Z,13.20
2023-04-08T10:06:08.545Z,13.10
2023-04-08T10:11:11.509Z,13.10
2023-04-08T10:16:24.477Z,13.20
2023-04-08T10:21:38.760Z,13.30
2023-04-08T10:26:42.490Z,13.50
2023-04-08T10:31:45.257Z,13.80
2023-04-08T10:36:50.236Z,14.00
2023-04-08T10:41:52.368Z,14.00
2023-04-08T10:46:56.321Z,14.00
2023-04-08T10:51:59.924Z,14.10
2023-04-08T10:57:02.154Z,14.30
2023-04-08T11:02:04.437Z,14.50
2023-04-08T11:07:08.155Z,14.70
2023-04-08T11:12:11.101Z,14.70
2023-04-08T11:17:15.906Z,14.60
2023-04-08T11:22:20.650Z,14.60
2023-04-08T11:27:23.532Z,14.70
2023-04-08T11:32:28.085Z,14.90
2023-04-08T11:37:39.114Z,15.10
2023-04-08T11:42:41.803Z,14.90
2023-04-08T11:47:44.519Z,14.90
2023-04-08T11:52:49.577Z,14.70
2023-04-08T11:57:52.015Z,14.80
2023-04-08T12:02:56.208Z,14.80
2023-04-08T12:08:00.602Z,14.70
2023-04-08T12:13:16.996Z,14.50
2023-04-08T12:18:20.514Z,14.30
2023-04-08T12:23:24.312Z,14.10
2023-04-08T12:28:31.867Z,14.00
2023-04-08T12:33:34.237Z,14.00
2023-04-08T12:38:43.082Z,14.10
2023-04-08T12:43:47.450Z,14.20
2023-04-08T12:49:03.325Z,14.10
2023-04-08T12:54:09.694Z,14.30
2023-04-08T12:59:11.984Z,14.60
2023-04-08T13:04:16.312Z,14.60
2023-04-08T13:09:20.173Z,14.70
2023-04-08T13:14:23.462Z,14.80
2023-04-08T13:19:25.549Z,15.20
2023-04-08T13:24:29.174Z,15.70
2023-04-08T13:29:31.336Z,16.10
2023-04-08T13:34:33.579Z,16.20
2023-04-08T13:39:37.560Z,16.30
2023-04-08T13:44:39.723Z,16.40
2023-04-08T13:49:44.275Z,16.30
2023-04-08T13:54:49.627Z,16.40
2023-04-08T13:59:53.713Z,16.30
2023-04-08T14:04:55.954Z,16.30
2023-04-08T14:09:59.553Z,16.10
2023-04-08T14:15:01.696Z,15.90
2023-04-08T14:20:04.516Z,15.80
2023-04-08T14:25:09.089Z,15.80
2023-04-08T14:30:11.816Z,15.70
2023-04-08T14:35:14.095Z,15.70
2023-04-08T14:40:17.827Z,15.90
2023-04-08T14:45:20.219Z,15.90
2023-04-08T14:50:22.642Z,15.90
2023-04-08T14:55:30.627Z,16.00
2023-04-08T15:00:33.177Z,15.90
2023-04-08T15:05:36.782Z,15.70
2023-04-08T15:10:40.952Z,15.60
2023-04-08T15:15:43.520Z,15.60
2023-04-08T15:20:45.676Z,15.60
2023-04-08T15:25:49.207Z,15.60
2023-04-08T15:30:51.421Z,15.70
2023-04-08T15:35:53.635Z,15.50
2023-04-08T15:40:57.250Z,15.20
2023-04-08T15:46:01.221Z,14.90
2023-04-08T15:51:07.171Z,14.80
2023-04-08T15:56:14.840Z,14.70
2023-04-08T16:01:17.184Z,14.70
2023-04-08T16:06:19.433Z,14.60
2023-04-08T16:11:23.137Z,14.30
2023-04-08T16:16:25.417Z,14.20
2023-04-08T16:21:28.151Z,14.20
2023-04-08T16:26:32.069Z,14.20
2023-04-08T16:31:36.377Z,14.00
2023-04-08T16:36:39.712Z,13.90
2023-04-08T16:41:43.538Z,13.70
2023-04-08T16:46:45.724Z,13.70
2023-04-08T16:51:47.976Z,13.60
2023-04-08T16:56:51.522Z,13.50
2023-04-08T17:01:53.992Z,13.50
2023-04-08T17:06:56.283Z,13.40
2023-04-08T17:12:00.145Z,13.40
2023-04-08T17:17:03.291Z,13.40
2023-04-08T17:22:06.147Z,13.40
2023-04-08T17:27:09.925Z,13.30
2023-04-08T17:32:12.131Z,13.30
2023-04-08T17:37:14.259Z,13.20
2023-04-08T17:42:17.992Z,13.20
2023-04-08T17:47:20.189Z,13.10
2023-04-08T17:52:22.380Z,13.10
2023-04-08T17:57:25.901Z,13.00
2023-04-08T18:02:28.235Z,12.90
2023-04-08T18:07:30.635Z,12.80
2023-04-08T18:12:34.287Z,12.70
2023-04-08T18:17:36.560Z,12.70
2023-04-08T18:22:38.691Z,12.60
2023-04-08T18:27:45.858Z,12.60
2023-04-08T18:32:48.278Z,12.50
2023-04-08T18:37:50.516Z,12.50
2023-04-08T18:42:54.532Z,12.50
2023-04-08T18:47:56.833Z,12.50
2023-04-08T18:52:58.988Z,12.40
2023-04-08T18:58:02.710Z,12.40
2023-04-08T19:03:07.491Z,12.40
2023-04-08T19:08:13.647Z,12.40
2023-04-08T19:13:19.034Z,12.50
2023-04-08T19:18:21.262Z,12.40
2023-04-08T19:23:23.866Z,12.40
2023-04-08T19:28:29.073Z,12.40
2023-04-08T19:33:31.218Z,12.30
2023-04-08T19:38:33.344Z,12.30
2023-04-08T19:43:36.883Z,12.30
2023-04-08T19:48:38.999Z,12.20
2023-04-08T19:53:41.140Z,12.10
2023-04-08T19:58:44.669Z,12.00
2023-04-08T20:03:47.103Z,12.00
2023-04-08T20:08:51.458Z,12.00
2023-04-08T20:13:55.081Z,12.00
2023-04-08T20:18:57.352Z,11.90
2023-04-08T20:23:59.444Z,11.80
2023-04-08T20:29:02.909Z,11.80
2023-04-08T20:34:05.087Z,11.70
2023-04-08T20:39:10.328Z,11.70
2023-04-08T20:44:14.023Z,11.70
2023-04-08T20:49:16.434Z,11.70
2023-04-08T20:54:18.583Z,11.60
2023-04-08T20:59:22.110Z,11.60
2023-04-08T21:04:27.132Z,11.50
2023-04-08T21:09:32.822Z,11.50
2023-04-08T21:14:36.487Z,11.40
2023-04-08T21:19:38.614Z,11.30
2023-04-08T21:24:40.883Z,11.30
2023-04-08T21:29:44.412Z,11.20
2023-04-08T21:34:46.657Z,11.20
2023-04-08T21:39:48.923Z,11.20
2023-04-08T21:44:52.540Z,11.20
2023-04-08T21:49:54.736Z,11.10
2023-04-08T21:54:57.095Z,11.10
2023-04-08T22:00:00.692Z,11.10
2023-04-08T22:05:02.948Z,11.10
2023-04-08T22:10:05.918Z,11.10
2023-04-08T22:15:12.266Z,11.10
2023-04-08T22:20:14.416Z,11.00
2023-04-08T22:25:16.690Z,11.00
2023-04-08T22:30:20.298Z,10.90
2023-04-08T22:35:22.462Z,10.90
2023-04-08T22:40:24.644Z,10.90
2023-04-08T22:45:28.185Z,10.90
2023-04-08T22:50:30.320Z,10.90
2023-04-08T22:55:32.558Z,11.00
2023-04-08T23:00:36.083Z,11.00
2023-04-08T23:05:38.217Z,11.00
2023-04-08T23:10:40.364Z,11.00
2023-04-08T23:15:43.966Z,11.10
2023-04-08T23:20:51.364Z,11.10
2023-04-08T23:25:55.512Z,11.10
2023-04-08T23:31:03.451Z,11.10
2023-04-08T23:36:07.733Z,11.20
2023-04-08T23:41:09.913Z,11.20
2023-04-08T23:46:13.550Z,11.30
2023-04-08T23:51:15.785Z,11.30
2023-04-08T23:56:18.205Z,11.40
